createdAt,value
2022-08-21T00:00:19.193Z,98875.13
2022-08-21T00:02:49.929Z,98875.91
2022-08-21T00:05:18.134Z,98867.13
2022-08-21T00:07:45.799Z,98867.19
2022-08-21T00:10:14.126Z,98862.50
2022-08-21T00:12:41.907Z,98865.59
2022-08-21T00:15:11.888Z,98878.19
2022-08-21T00:17:39.646Z,98874.13
2022-08-21T00:20:09.874Z,98864.94
2022-08-21T00:22:37.659Z,98865.50
2022-08-21T00:25:07.084Z,98878.41
2022-08-21T00:27:34.987Z,98869.25
2022-08-21T00:30:04.420Z,98858.50
2022-08-21T00:32:31.810Z,98854.72
2022-08-21T00:34:59.196Z,98844.13
2022-08-21T00:37:26.519Z,98843.13
2022-08-21T00:39:54.368Z,98834.22
2022-08-21T00:42:21.788Z,98836.22
2022-08-21T00:44:51.439Z,98836.75
2022-08-21T00:47:20.142Z,98839.06
2022-08-21T00:49:47.801Z,98848.72
2022-08-21T00:52:23.648Z,98853.41
2022-08-21T00:54:53.413Z,98865.34
2022-08-21T00:57:29.505Z,98867.53
2022-08-21T01:00:01.626Z,98862.34
2022-08-21T01:02:29.380Z,98849.78
2022-08-21T01:04:58.647Z,98842.47
2022-08-21T01:07:27.638Z,98840.97
2022-08-21T01:09:55.205Z,98853.47
2022-08-21T01:12:22.620Z,98867.53
2022-08-21T01:14:50.313Z,98874.69
2022-08-21T01:17:19.762Z,98878.91
2022-08-21T01:19:47.013Z,98862.59
2022-08-21T01:22:14.656Z,98857.22
2022-08-21T01:24:42.147Z,98860.53
2022-08-21T01:27:09.469Z,98872.78
2022-08-21T01:30:20.802Z,98858.72
2022-08-21T01:32:49.547Z,98842.63
2022-08-21T01:35:18.347Z,98846.88
2022-08-21T01:37:46.799Z,98855.22
2022-08-21T01:40:17.682Z,98854.44
2022-08-21T01:42:46.840Z,98845.72
2022-08-21T01:45:17.192Z,98845.72
2022-08-21T01:47:45.796Z,98839.41
2022-08-21T01:50:16.474Z,98848.13
2022-08-21T01:52:43.855Z,98842.75
2022-08-21T01:55:13.653Z,98840.06
2022-08-21T01:57:41.126Z,98837.34
2022-08-21T02:00:12.158Z,98841.88
2022-08-21T02:02:41.981Z,98842.28
2022-08-21T02:05:11.409Z,98845.38
2022-08-21T02:07:43.865Z,98850.69
2022-08-21T02:10:13.646Z,98875.16
2022-08-21T02:12:40.904Z,98873.56
2022-08-21T02:15:10.474Z,98879.22
2022-08-21T02:17:45.779Z,98887.94
2022-08-21T02:20:18.879Z,98903.50
2022-08-21T02:22:46.200Z,98906.72
2022-08-21T02:25:13.804Z,98924.84
2022-08-21T02:27:47.795Z,98929.91
2022-08-21T02:30:19.554Z,98926.19
2022-08-21T02:32:46.898Z,98934.66
2022-08-21T02:35:14.841Z,98937.63
2022-08-21T02:37:48.528Z,98920.47
2022-08-21T02:40:18.458Z,98930.41
2022-08-21T02:42:45.932Z,98924.69
2022-08-21T02:45:14.574Z,98928.94
2022-08-21T02:47:49.303Z,98918.72
2022-08-21T02:50:21.549Z,98922.13
2022-08-21T02:52:48.802Z,98925.88
2022-08-21T02:55:19.644Z,98933.03
2022-08-21T02:57:47.033Z,98922.72
2022-08-21T03:00:14.755Z,98934.06
2022-08-21T03:02:42.141Z,98934.69
2022-08-21T03:05:11.870Z,98934.44
2022-08-21T03:07:40.451Z,98940.56
2022-08-21T03:10:08.964Z,98946.97
2022-08-21T03:12:36.674Z,98944.03
2022-08-21T03:15:12.862Z,98938.22
2022-08-21T03:17:40.683Z,98929.56
2022-08-21T03:20:09.723Z,98924.97
2022-08-21T03:22:37.031Z,98921.88
2022-08-21T03:25:05.333Z,98923.19
2022-08-21T03:27:35.111Z,98929.69
2022-08-21T03:30:05.470Z,98927.78
2022-08-21T03:32:33.005Z,98934.25
2022-08-21T03:35:01.330Z,98936.50
2022-08-21T03:37:28.975Z,98945.53
2022-08-21T03:39:56.429Z,98953.56
2022-08-21T03:42:24.408Z,98961.94
2022-08-21T03:44:52.186Z,98952.47
2022-08-21T03:47:19.522Z,98956.53
2022-08-21T03:49:46.732Z,98950.13
2022-08-21T03:52:14.092Z,98951.75
2022-08-21T03:54:42.381Z,98951.75
2022-08-21T03:57:10.338Z,98948.66
2022-08-21T03:59:38.784Z,98956.97
2022-08-21T04:02:07.750Z,98959.63
2022-08-21T04:04:35.551Z,98964.13
2022-08-21T04:07:03.732Z,98962.59
2022-08-21T04:09:31.439Z,98966.06
2022-08-21T04:12:00.125Z,98966.16
2022-08-21T04:14:27.540Z,98961.16
2022-08-21T04:16:54.937Z,98953.56
2022-08-21T04:19:22.248Z,98958.53
2022-08-21T04:21:50.666Z,98955.84
2022-08-21T04:24:20.413Z,98950.47
2022-08-21T04:26:48.215Z,98946.34
2022-08-21T04:29:15.537Z,98940.31
2022-08-21T04:31:44.562Z,98947.53
2022-08-21T04:34:11.831Z,98940.28
2022-08-21T04:36:39.065Z,98936.50
2022-08-21T04:39:06.551Z,98936.88
2022-08-21T04:41:37.550Z,98939.22
2022-08-21T04:44:05.497Z,98936.50
2022-08-21T04:46:32.715Z,98932.75
2022-08-21T04:49:00.360Z,98931.66
2022-08-21T04:51:36.110Z,98927.94
2022-08-21T04:54:15.611Z,98929.78
2022-08-21T04:56:52.269Z,98931.31
2022-08-21T04:59:24.493Z,98925.63
2022-08-21T05:01:52.931Z,98922.19
2022-08-21T05:04:25.061Z,98922.84
2022-08-21T05:06:56.322Z,98922.44
2022-08-21T05:09:24.888Z,98924.03
2022-08-21T05:11:54.038Z,98932.09
2022-08-21T05:14:21.424Z,98923.78
2022-08-21T05:16:49.436Z,98927.72
2022-08-21T05:19:16.776Z,98923.06
2022-08-21T05:21:46.735Z,98930.81
2022-08-21T05:24:14.009Z,98927.03
2022-08-21T05:26:46.511Z,98927.16
2022-08-21T05:29:16.386Z,98921.50
2022-08-21T05:31:46.084Z,98915.44
2022-08-21T05:34:17.030Z,98910.16
2022-08-21T05:36:45.958Z,98913.66
2022-08-21T05:39:13.465Z,98913.03
2022-08-21T05:41:41.016Z,98906.91
2022-08-21T05:44:10.060Z,98906.94
2022-08-21T05:46:38.910Z,98899.63
2022-08-21T05:49:06.237Z,98909.94
2022-08-21T05:51:33.478Z,98907.50
2022-08-21T05:54:00.767Z,98907.94
2022-08-21T05:56:28.194Z,98909.75
2022-08-21T05:58:56.587Z,98901.91
2022-08-21T06:01:23.986Z,98911.56
2022-08-21T06:03:51.363Z,98909.53
2022-08-21T06:06:18.833Z,98909.91
2022-08-21T06:08:47.033Z,98911.84
2022-08-21T06:11:14.516Z,98915.53
2022-08-21T06:13:42.652Z,98917.53
2022-08-21T06:16:16.045Z,98920.13
2022-08-21T06:18:45.066Z,98922.75
2022-08-21T06:21:14.450Z,98920.13
2022-08-21T06:23:42.791Z,98930.31
2022-08-21T06:26:12.532Z,98933.75
2022-08-21T06:28:40.325Z,98939.38
2022-08-21T06:31:20.283Z,98944.31
2022-08-21T06:33:48.479Z,98952.13
2022-08-21T06:36:38.056Z,98955.28
2022-08-21T06:39:16.530Z,98955.84
2022-08-21T06:41:53.241Z,98946.59
2022-08-21T06:44:25.406Z,98947.19
2022-08-21T06:46:52.685Z,98946.41
2022-08-21T06:49:21.584Z,98953.22
2022-08-21T06:51:49.196Z,98948.78
2022-08-21T06:54:16.509Z,98938.69
2022-08-21T06:56:43.722Z,98939.13
2022-08-21T06:59:11.066Z,98936.81
2022-08-21T07:01:38.352Z,98944.16
2022-08-21T07:04:05.976Z,98941.94
2022-08-21T07:06:34.021Z,98925.78
2022-08-21T07:09:03.408Z,98929.59
2022-08-21T07:11:30.998Z,98915.22
2022-08-21T07:14:04.391Z,98917.31
2022-08-21T07:16:31.819Z,98916.50
2022-08-21T07:18:59.085Z,98910.41
2022-08-21T07:21:26.476Z,98902.84
2022-08-21T07:23:55.653Z,98908.97
2022-08-21T07:26:26.994Z,98897.72
2022-08-21T07:28:54.748Z,98906.34
2022-08-21T07:31:25.512Z,98899.22
2022-08-21T07:33:53.187Z,98895.41
2022-08-21T07:36:23.295Z,98891.63
2022-08-21T07:38:52.468Z,98898.00
2022-08-21T07:41:25.450Z,98903.91
2022-08-21T07:43:53.681Z,98894.94
2022-08-21T07:46:24.538Z,98890.97
2022-08-21T07:48:53.770Z,98891.81
2022-08-21T07:51:25.496Z,98893.84
2022-08-21T07:53:54.789Z,98894.00
2022-08-21T07:56:23.365Z,98896.31
2022-08-21T07:58:50.955Z,98898.25
2022-08-21T08:01:19.218Z,98897.78
2022-08-21T08:03:46.826Z,98895.09
2022-08-21T08:06:14.262Z,98895.13
2022-08-21T08:08:43.037Z,98896.75
2022-08-21T08:11:12.122Z,98890.53
2022-08-21T08:13:42.083Z,98892.81
2022-08-21T08:16:09.509Z,98892.78
2022-08-21T08:18:36.875Z,98892.66
2022-08-21T08:21:06.451Z,98894.59
2022-08-21T08:23:34.584Z,98895.34
2022-08-21T08:26:03.787Z,98898.13
2022-08-21T08:28:32.872Z,98896.00
2022-08-21T08:31:01.568Z,98898.91
2022-08-21T08:33:29.004Z,98902.34
2022-08-21T08:35:56.494Z,98898.75
2022-08-21T08:38:26.060Z,98891.06
2022-08-21T08:41:19.863Z,98892.34
2022-08-21T08:43:55.406Z,98881.09
2022-08-21T08:46:37.907Z,98876.03
2022-08-21T08:49:14.744Z,98881.84
2022-08-21T08:52:01.128Z,98881.88
2022-08-21T08:54:46.034Z,98877.19
2022-08-21T08:57:19.586Z,98881.03
2022-08-21T08:59:51.722Z,98876.63
2022-08-21T09:02:24.109Z,98875.41
2022-08-21T09:04:53.623Z,98872.22
2022-08-21T09:07:40.167Z,98870.94
2022-08-21T09:10:19.710Z,98868.59
2022-08-21T09:12:56.309Z,98865.81
2022-08-21T09:15:26.812Z,98871.16
2022-08-21T09:17:54.058Z,98867.63
2022-08-21T09:20:30.569Z,98870.09
2022-08-21T09:23:13.435Z,98870.44
2022-08-21T09:25:57.307Z,98870.22
2022-08-21T09:28:24.614Z,98866.56
2022-08-21T09:30:56.745Z,98866.41
2022-08-21T09:33:25.186Z,98867.00
2022-08-21T09:35:58.812Z,98863.53
2022-08-21T09:38:30.967Z,98857.25
2022-08-21T09:41:05.594Z,98856.78
2022-08-21T09:43:33.805Z,98862.50
2022-08-21T09:46:24.114Z,98858.56
2022-08-21T09:48:56.897Z,98860.91
2022-08-21T09:51:33.473Z,98859.97
2022-08-21T09:54:07.107Z,98859.22
2022-08-21T09:57:00.640Z,98857.75
2022-08-21T09:59:36.041Z,98856.66
2022-08-21T10:02:27.256Z,98867.50
2022-08-21T10:04:59.918Z,98859.31
2022-08-21T10:07:30.700Z,98855.78
2022-08-21T10:10:03.168Z,98860.75
2022-08-21T10:12:49.844Z,98851.28
2022-08-21T10:15:25.657Z,98854.91
2022-08-21T10:18:21.772Z,98852.44
2022-08-21T10:21:12.253Z,98845.19
2022-08-21T10:23:53.809Z,98848.38
2022-08-21T10:26:28.170Z,98848.91
2022-08-21T10:29:04.957Z,98846.13
2022-08-21T10:32:03.207Z,98847.72
2022-08-21T10:34:48.638Z,98844.66
2022-08-21T10:37:51.789Z,98848.91
2022-08-21T10:40:50.321Z,98845.53
2022-08-21T10:43:43.042Z,98846.81
2022-08-21T10:46:22.596Z,98856.91
2022-08-21T10:49:06.874Z,98844.91
2022-08-21T10:51:53.580Z,98843.44
2022-08-21T10:54:53.086Z,98850.31
2022-08-21T10:57:34.932Z,98864.97
2022-08-21T11:00:12.489Z,98852.25
2022-08-21T11:02:52.577Z,98846.50
2022-08-21T11:05:35.475Z,98850.53
2022-08-21T11:08:22.850Z,98849.03
2022-08-21T11:11:00.662Z,98848.31
2022-08-21T11:13:50.452Z,98855.19
2022-08-21T11:16:47.752Z,98854.28
2022-08-21T11:19:24.079Z,98847.41
2022-08-21T11:22:36.131Z,98852.78
2022-08-21T11:25:22.933Z,98846.44
2022-08-21T11:28:02.530Z,98849.00
2022-08-21T11:31:11.081Z,98848.81
2022-08-21T11:34:02.651Z,98842.94
2022-08-21T11:36:29.942Z,98844.19
2022-08-21T11:39:15.625Z,98830.31
2022-08-21T11:41:55.833Z,98827.22
2022-08-21T11:45:19.321Z,98824.59
2022-08-21T11:48:07.747Z,98809.84
2022-08-21T11:50:39.986Z,98810.50
2022-08-21T11:53:14.778Z,98807.13
2022-08-21T11:56:14.076Z,98806.06
2022-08-21T11:58:48.807Z,98811.19
2022-08-21T12:01:23.256Z,98798.25
2022-08-21T12:04:05.478Z,98804.78
2022-08-21T12:06:40.715Z,98803.91
2022-08-21T12:09:30.720Z,98806.63
2022-08-21T12:12:03.760Z,98796.25
2022-08-21T12:14:48.634Z,98800.81
2022-08-21T12:17:26.647Z,98796.13
2022-08-21T12:20:17.969Z,98794.78
2022-08-21T12:23:04.363Z,98795.66
2022-08-21T12:25:41.923Z,98789.19
2022-08-21T12:28:18.923Z,98795.56
2022-08-21T12:30:49.786Z,98792.88
2022-08-21T12:33:41.526Z,98789.56
2022-08-21T12:36:22.547Z,98784.75
2022-08-21T12:38:56.929Z,98782.97
2022-08-21T12:41:33.416Z,98783.91
2022-08-21T12:44:11.743Z,98779.03
2022-08-21T12:46:52.051Z,98785.31
2022-08-21T12:49:40.274Z,98779.22
2022-08-21T12:52:33.600Z,98782.31
2022-08-21T12:55:05.138Z,98785.03
2022-08-21T12:57:33.736Z,98770.44
2022-08-21T13:00:04.466Z,98772.66
2022-08-21T13:02:41.005Z,98763.38
2022-08-21T13:05:21.745Z,98772.75
2022-08-21T13:07:50.219Z,98774.09
2022-08-21T13:10:25.165Z,98775.53
2022-08-21T13:12:58.262Z,98771.41
2022-08-21T13:15:33.336Z,98772.69
2022-08-21T13:18:05.289Z,98776.63
2022-08-21T13:20:39.061Z,98780.63
2022-08-21T13:23:29.160Z,98767.50
2022-08-21T13:25:57.709Z,98760.78
2022-08-21T13:28:34.176Z,98757.75
2022-08-21T13:31:02.712Z,98754.75
2022-08-21T13:33:37.579Z,98758.75
2022-08-21T13:36:35.868Z,98759.50
2022-08-21T13:39:06.022Z,98759.50
2022-08-21T13:41:37.726Z,98760.28
2022-08-21T13:44:41.217Z,98760.53
2022-08-21T13:47:11.180Z,98754.66
2022-08-21T13:49:42.779Z,98753.97
2022-08-21T13:52:22.624Z,98748.28
2022-08-21T13:55:02.478Z,98743.63
2022-08-21T13:57:32.698Z,98746.81
2022-08-21T14:00:31.246Z,98748.22
2022-08-21T14:03:06.187Z,98750.94
2022-08-21T14:05:38.483Z,98752.44
2022-08-21T14:08:14.733Z,98745.91
2022-08-21T14:10:57.500Z,98748.81
2022-08-21T14:13:32.502Z,98743.16
2022-08-21T14:16:15.279Z,98738.31
2022-08-21T14:18:55.493Z,98742.66
2022-08-21T14:21:34.530Z,98736.81
2022-08-21T14:24:06.398Z,98734.78
2022-08-21T14:26:37.621Z,98732.09
2022-08-21T14:29:13.691Z,98728.03
2022-08-21T14:31:44.186Z,98730.72
2022-08-21T14:34:19.604Z,98732.31
2022-08-21T14:36:51.162Z,98721.91
2022-08-21T14:39:18.862Z,98716.50
2022-08-21T14:41:49.063Z,98705.44
2022-08-21T14:44:18.720Z,98702.44
2022-08-21T14:46:56.471Z,98707.50
2022-08-21T14:49:30.360Z,98710.19
2022-08-21T14:51:59.243Z,98705.25
2022-08-21T14:54:32.284Z,98710.97
2022-08-21T14:57:11.588Z,98708.59
2022-08-21T14:59:42.095Z,98707.28
2022-08-21T15:02:11.001Z,98702.91
2022-08-21T15:04:38.474Z,98694.94
2022-08-21T15:07:06.372Z,98698.19
2022-08-21T15:09:34.236Z,98705.91
2022-08-21T15:12:04.051Z,98701.63
2022-08-21T15:14:34.484Z,98703.88
2022-08-21T15:17:01.904Z,98704.97
2022-08-21T15:19:30.644Z,98700.22
2022-08-21T15:21:58.757Z,98699.59
2022-08-21T15:24:27.571Z,98693.81
2022-08-21T15:26:57.116Z,98696.75
2022-08-21T15:29:24.710Z,98696.50
2022-08-21T15:32:02.935Z,98690.41
2022-08-21T15:34:32.589Z,98684.63
2022-08-21T15:37:01.341Z,98688.91
2022-08-21T15:39:30.291Z,98685.44
2022-08-21T15:42:00.078Z,98680.13
2022-08-21T15:44:41.556Z,98684.34
2022-08-21T15:47:16.519Z,98679.44
2022-08-21T15:49:48.473Z,98680.53
2022-08-21T15:52:18.597Z,98677.53
2022-08-21T15:54:46.402Z,98671.41
2022-08-21T15:57:17.569Z,98666.22
2022-08-21T15:59:50.599Z,98668.38
2022-08-21T16:02:27.663Z,98669.88
2022-08-21T16:04:55.595Z,98665.53
2022-08-21T16:07:22.889Z,98657.47
2022-08-21T16:09:50.270Z,98655.13
2022-08-21T16:12:25.573Z,98653.59
2022-08-21T16:14:55.079Z,98645.06
2022-08-21T16:17:28.378Z,98652.28
2022-08-21T16:19:56.312Z,98652.09
2022-08-21T16:22:23.730Z,98639.97
2022-08-21T16:24:51.080Z,98642.03
2022-08-21T16:27:19.467Z,98644.06
2022-08-21T16:29:47.411Z,98637.28
2022-08-21T16:32:15.441Z,98640.28
2022-08-21T16:34:47.367Z,98644.47
2022-08-21T16:37:24.076Z,98644.09
2022-08-21T16:39:53.226Z,98652.28
2022-08-21T16:42:24.392Z,98651.22
2022-08-21T16:44:51.739Z,98657.66
2022-08-21T16:47:26.351Z,98657.66
2022-08-21T16:49:55.115Z,98661.50
2022-08-21T16:52:22.378Z,98658.66
2022-08-21T16:54:49.658Z,98658.59
2022-08-21T16:57:17.109Z,98660.28
2022-08-21T16:59:46.016Z,98647.88
2022-08-21T17:02:29.485Z,98656.78
2022-08-21T17:04:59.044Z,98646.38
2022-08-21T17:07:30.273Z,98644.53
2022-08-21T17:09:59.978Z,98645.38
2022-08-21T17:12:27.454Z,98643.88
2022-08-21T17:14:57.737Z,98639.53
2022-08-21T17:17:25.632Z,98635.91
2022-08-21T17:19:53.376Z,98638.50
2022-08-21T17:22:21.825Z,98636.91
2022-08-21T17:24:50.695Z,98638.19
2022-08-21T17:27:26.818Z,98632.75
2022-08-21T17:29:55.452Z,98640.44
2022-08-21T17:32:24.309Z,98632.97
2022-08-21T17:34:52.125Z,98638.34
2022-08-21T17:37:26.258Z,98635.56
2022-08-21T17:39:59.209Z,98645.03
2022-08-21T17:42:29.798Z,98651.66
2022-08-21T17:44:58.215Z,98648.81
2022-08-21T17:47:26.472Z,98653.47
2022-08-21T17:49:53.746Z,98642.94
2022-08-21T17:52:21.271Z,98648.69
2022-08-21T17:54:48.484Z,98648.31
2022-08-21T17:57:22.785Z,98654.38
2022-08-21T17:59:55.146Z,98653.56
2022-08-21T18:02:26.962Z,98659.56
2022-08-21T18:05:19.151Z,98657.66
2022-08-21T18:07:47.156Z,98654.28
2022-08-21T18:10:16.034Z,98649.75
2022-08-21T18:12:48.737Z,98652.59
2022-08-21T18:15:20.881Z,98656.03
2022-08-21T18:17:52.261Z,98660.66
2022-08-21T18:20:24.363Z,98670.28
2022-08-21T18:22:53.525Z,98674.09
2022-08-21T18:25:21.176Z,98679.56
2022-08-21T18:27:52.706Z,98676.75
2022-08-21T18:30:25.569Z,98683.97
2022-08-21T18:32:54.869Z,98675.19
2022-08-21T18:35:23.689Z,98682.38
2022-08-21T18:37:54.804Z,98675.47
2022-08-21T18:40:23.727Z,98684.09
2022-08-21T18:42:55.872Z,98687.53
2022-08-21T18:45:25.666Z,98691.34
2022-08-21T18:47:58.299Z,98693.50
2022-08-21T18:50:32.800Z,98695.13
2022-08-21T18:53:08.261Z,98693.56
2022-08-21T18:58:47.665Z,98691.97
2022-08-21T19:01:15.122Z,98695.75
2022-08-21T19:03:51.061Z,98704.13
2022-08-21T19:06:20.543Z,98701.25
2022-08-21T19:08:51.406Z,98705.22
2022-08-21T19:11:23.478Z,98712.66
2022-08-21T19:13:57.382Z,98706.75
2022-08-21T19:16:25.024Z,98700.38
2022-08-21T19:18:58.204Z,98697.06
2022-08-21T19:21:28.473Z,98691.88
2022-08-21T19:23:56.924Z,98689.59
2022-08-21T19:26:29.235Z,98696.00
2022-08-21T19:29:02.841Z,98694.97
2022-08-21T19:31:34.028Z,98685.31
2022-08-21T19:34:27.917Z,98690.13
2022-08-21T19:36:59.349Z,98687.56
2022-08-21T19:39:27.547Z,98694.38
2022-08-21T19:41:59.716Z,98699.66
2022-08-21T19:44:30.897Z,98689.78
2022-08-21T19:47:05.569Z,98687.31
2022-08-21T19:49:37.158Z,98691.44
2022-08-21T19:52:13.051Z,98682.00
2022-08-21T19:54:43.161Z,98675.19
2022-08-21T19:57:13.274Z,98674.78
2022-08-21T19:59:43.628Z,98672.81
2022-08-21T20:02:14.574Z,98678.75
2022-08-21T20:04:53.297Z,98678.34
2022-08-21T20:07:26.670Z,98688.22
2022-08-21T20:12:47.324Z,98692.22
2022-08-21T20:15:22.038Z,98694.84
2022-08-21T20:17:52.506Z,98704.84
2022-08-21T20:20:22.289Z,98701.59
2022-08-21T20:22:54.559Z,98708.94
2022-08-21T20:25:26.538Z,98714.81
2022-08-21T20:27:55.179Z,98713.41
2022-08-21T20:30:22.842Z,98716.63
2022-08-21T20:32:51.420Z,98709.78
2022-08-21T20:35:20.402Z,98712.16
2022-08-21T20:37:58.583Z,98715.06
2022-08-21T20:43:16.165Z,98710.28
2022-08-21T20:45:43.561Z,98711.16
2022-08-21T20:48:28.456Z,98705.09
2022-08-21T20:51:24.226Z,98713.88
2022-08-21T20:54:32.132Z,98709.16
2022-08-21T20:57:17.756Z,98722.13
2022-08-21T21:00:08.097Z,98715.88
2022-08-21T21:03:04.279Z,98715.59
2022-08-21T21:05:41.777Z,98717.44
2022-08-21T21:08:16.371Z,98713.13
2022-08-21T21:11:02.812Z,98713.88
2022-08-21T21:14:00.051Z,98717.06
2022-08-21T21:16:30.343Z,98722.50
2022-08-21T21:19:03.491Z,98724.34
2022-08-21T21:21:54.170Z,98727.00
2022-08-21T21:24:29.128Z,98713.59
2022-08-21T21:27:11.856Z,98719.56
2022-08-21T21:29:45.928Z,98724.13
2022-08-21T21:32:17.958Z,98720.84
2022-08-21T21:34:47.417Z,98730.53
2022-08-21T21:37:59.568Z,98725.94
2022-08-21T21:40:39.063Z,98725.31
2022-08-21T21:43:43.576Z,98722.09
2022-08-21T21:46:33.412Z,98722.22
2022-08-21T21:49:20.910Z,98728.72
2022-08-21T21:51:55.787Z,98732.44
2022-08-21T21:54:43.358Z,98738.91
2022-08-21T21:57:39.050Z,98729.66
2022-08-21T22:00:19.512Z,98731.22
2022-08-21T22:03:08.080Z,98731.44
2022-08-21T22:05:56.384Z,98730.66
2022-08-21T22:08:48.926Z,98729.91
2022-08-21T22:12:10.992Z,98725.44
2022-08-21T22:14:41.598Z,98718.66
2022-08-21T22:17:41.334Z,98724.44
2022-08-21T22:20:24.258Z,98722.50
2022-08-21T22:22:55.953Z,98709.16
2022-08-21T22:25:27.884Z,98705.28
2022-08-21T22:28:06.941Z,98697.56
2022-08-21T22:31:15.479Z,98701.00
2022-08-21T22:34:14.244Z,98706.75
2022-08-21T22:37:07.402Z,98702.91
2022-08-21T22:39:44.009Z,98708.88
2022-08-21T22:42:20.633Z,98703.91
2022-08-21T22:44:57.221Z,98706.91
2022-08-21T22:47:31.065Z,98715.78
2022-08-21T22:50:03.965Z,98727.91
2022-08-21T22:52:45.188Z,98715.16
2022-08-21T22:55:18.300Z,98728.06
2022-08-21T22:58:06.327Z,98725.81
2022-08-21T23:00:49.665Z,98728.59
2022-08-21T23:03:42.043Z,98727.31
2022-08-21T23:06:40.651Z,98719.09
2022-08-21T23:09:38.391Z,98725.69
2022-08-21T23:12:24.054Z,98721.88
2022-08-21T23:15:08.228Z,98725.78
2022-08-21T23:17:53.948Z,98730.59
2022-08-21T23:20:42.384Z,98731.91
2022-08-21T23:23:34.967Z,98731.75
2022-08-21T23:26:26.623Z,98733.88
2022-08-21T23:29:32.148Z,98724.91
2022-08-21T23:35:22.380Z,98727.03
2022-08-21T23:37:52.460Z,98726.41
2022-08-21T23:40:51.191Z,98716.78
2022-08-21T23:43:42.088Z,98724.56
2022-08-21T23:46:20.889Z,98727.50
2022-08-21T23:49:22.156Z,98736.63
2022-08-21T23:52:28.656Z,98736.97
2022-08-21T23:55:32.104Z,98739.13
2022-08-21T23:58:10.628Z,98730.94
